Time;durP1;ratioP1;P1;durP2;ratioP2;P2;SDS_P1;SDS_P2;PMS_P1;PMS_P2;Temp;Humidity;BMP_temperature;BMP_pressure;BME280_temperature;BME280_humidity;BME280_pressure;Samples;Min_cycle;Max_cycle;Signal;HPM_P1;HPM_P2
2021/12/07 00:00:42;;;;;;;10.25;7.60;;;;;;;-140.79;100.00;63287.88;5047534;28;20033;-54
2021/12/07 00:03:08;;;;;;;9.70;7.20;;;;;;;-140.79;100.00;63287.88;5047489;28;20029;-51
2021/12/07 00:05:33;;;;;;;10.95;8.05;;;;;;;-140.79;100.00;63287.88;5046165;28;20021;-52
2021/12/07 00:07:59;;;;;;;11.25;7.78;;;;;;;-140.79;100.00;63287.88;5032754;28;20044;-53
2021/12/07 00:10:24;;;;;;;10.52;8.02;;;;;;;-140.79;100.00;63287.88;5040621;28;20079;-52
2021/12/07 00:12:49;;;;;;;11.65;7.82;;;;;;;-140.79;100.00;63287.88;5046956;28;20040;-51
2021/12/07 00:15:17;;;;;;;11.93;8.38;;;;;;;-140.79;100.00;63287.88;5047093;28;20017;-51
2021/12/07 00:17:43;;;;;;;11.55;8.07;;;;;;;-140.79;100.00;63287.88;5046969;28;20012;-50
2021/12/07 00:20:11;;;;;;;10.85;7.53;;;;;;;-140.79;100.00;63287.88;5047003;28;20276;-52
2021/12/07 00:22:38;;;;;;;10.48;7.50;;;;;;;-140.79;100.00;63287.88;5047141;28;20032;-50
2021/12/07 00:25:04;;;;;;;10.05;7.35;;;;;;;-140.79;100.00;63287.88;5046984;28;20036;-52
2021/12/07 00:27:29;;;;;;;11.07;7.93;;;;;;;-140.79;100.00;63287.88;5045390;28;20029;-50
2021/12/07 00:29:55;;;;;;;10.27;7.72;;;;;;;-140.79;100.00;63287.88;5047035;28;20482;-51
2021/12/07 00:32:27;;;;;;;10.07;7.50;;;;;;;-140.79;100.00;63287.88;5038605;28;20468;-51
2021/12/07 00:37:26;;;;;;;9.70;7.45;;;;;;;-140.79;100.00;63287.88;5046796;28;20083;-50
2021/12/07 00:39:53;;;;;;;10.90;7.88;;;;;;;-140.79;100.00;63287.88;5046712;28;20041;-51
2021/12/07 00:42:18;;;;;;;10.27;7.50;;;;;;;-140.79;100.00;63287.88;5046610;28;20885;-51
2021/12/07 00:44:43;;;;;;;11.68;7.53;;;;;;;-140.79;100.00;63287.88;5045581;28;20491;-52
2021/12/07 00:47:09;;;;;;;10.40;7.53;;;;;;;-140.79;100.00;63287.88;5046254;28;20111;-51
2021/12/07 00:49:34;;;;;;;9.30;7.28;;;;;;;-140.79;100.00;63287.88;5046652;28;20017;-53
2021/12/07 00:52:00;;;;;;;10.13;7.22;;;;;;;-140.79;100.00;63287.88;5046253;28;20049;-52
2021/12/07 00:54:25;;;;;;;9.65;7.32;;;;;;;-140.79;100.00;63287.88;5046358;28;20119;-51
2021/12/07 00:56:51;;;;;;;9.32;6.38;;;;;;;-140.79;100.00;63287.88;5046169;28;20025;-52
2021/12/07 00:59:16;;;;;;;8.68;6.97;;;;;;;-140.79;100.00;63287.88;5046371;28;20036;-51
2021/12/07 01:01:42;;;;;;;10.25;7.28;;;;;;;-140.79;100.00;63287.88;5046351;28;20639;-51
2021/12/07 01:04:07;;;;;;;9.68;6.85;;;;;;;-140.79;100.00;63287.88;5046206;28;20053;-52
2021/12/07 01:06:47;;;;;;;9.13;7.00;;;;;;;-140.79;100.00;63287.88;5038725;28;20419;-51
2021/12/07 01:25:28;;;;;;;9.15;6.85;;;;;;;-140.79;100.00;63287.88;5045250;28;20082;-50
2021/12/07 01:27:57;;;;;;;9.50;6.40;;;;;;;-140.79;100.00;63287.88;5045195;28;20040;-52
2021/12/07 01:30:37;;;;;;;8.98;5.97;;;;;;;-140.79;100.00;63287.88;5060082;28;20511;-51
2021/12/07 01:33:30;;;;;;;9.75;6.80;;;;;;;-140.79;100.00;63287.88;5045001;28;20029;-52
2021/12/07 01:36:37;;;;;;;9.52;6.40;;;;;;;-140.79;100.00;63287.88;5045147;28;20411;-52
2021/12/07 01:42:53;;;;;;;8.00;5.70;;;;;;;-140.79;100.00;63287.88;5002797;28;20041;-52
2021/12/07 01:44:51;;;;;;;8.35;6.15;;;;;;;-140.79;100.00;63287.88;5040867;28;20044;-51
2021/12/07 01:59:32;;;;;;;8.68;6.07;;;;;;;-140.79;100.00;63287.88;5045063;28;20036;-53
2021/12/07 02:00:51;;;;;;;7.78;5.85;;;;;;;-140.79;100.00;63287.88;5044732;28;20045;-52
2021/12/07 02:03:17;;;;;;;8.32;5.93;;;;;;;-140.79;100.00;63287.88;5044221;28;20033;-54
2021/12/07 02:05:43;;;;;;;8.02;6.00;;;;;;;-140.79;100.00;63287.88;5044567;28;20033;-54
2021/12/07 02:08:08;;;;;;;8.02;5.78;;;;;;;-140.79;100.00;63287.88;5028965;28;20039;-53
2021/12/07 02:10:34;;;;;;;7.57;5.40;;;;;;;-140.79;100.00;63287.88;5053757;28;20040;-52
2021/12/07 02:14:04;;;;;;;7.60;5.82;;;;;;;-140.79;100.00;63287.88;5044297;28;20043;-52
2021/12/07 02:15:45;;;;;;;8.35;5.80;;;;;;;-140.79;100.00;63287.88;5043971;28;20067;-53
2021/12/07 02:18:11;;;;;;;7.55;5.63;;;;;;;-140.79;100.00;63287.88;5039641;28;20488;-52
2021/12/07 02:20:36;;;;;;;7.75;5.45;;;;;;;-140.79;100.00;63287.88;5037932;28;20506;-52
2021/12/07 02:23:02;;;;;;;7.60;5.65;;;;;;;-140.79;100.00;63287.88;5044283;28;20025;-52
2021/12/07 02:25:28;;;;;;;9.05;5.85;;;;;;;-140.79;100.00;63287.88;5044390;28;20028;-53
2021/12/07 02:27:54;;;;;;;7.40;5.25;;;;;;;-140.79;100.00;63287.88;5059536;28;20029;-54
2021/12/07 02:30:20;;;;;;;7.10;5.00;;;;;;;-140.79;100.00;63287.88;5044173;28;20048;-53
2021/12/07 02:32:46;;;;;;;7.13;5.00;;;;;;;-140.79;100.00;63287.88;5038545;28;20037;-53
2021/12/07 02:35:14;;;;;;;7.55;5.25;;;;;;;-140.79;100.00;63287.88;5035749;28;20056;-52
2021/12/07 02:37:39;;;;;;;7.80;5.05;;;;;;;-140.79;100.00;63287.88;5044763;28;20122;-52
2021/12/07 02:40:06;;;;;;;7.20;5.13;;;;;;;-140.79;100.00;63287.88;5044519;28;20454;-53
2021/12/07 02:42:31;;;;;;;6.18;4.70;;;;;;;-140.79;100.00;63287.88;5044360;28;20033;-52
2021/12/07 02:44:56;;;;;;;6.63;5.03;;;;;;;-140.79;100.00;63287.88;5044222;28;20404;-52
2021/12/07 02:47:22;;;;;;;7.07;4.88;;;;;;;-140.79;100.00;63287.88;5044072;28;20609;-55
2021/12/07 02:49:47;;;;;;;7.25;4.95;;;;;;;-140.79;100.00;63287.88;5044540;28;20037;-53
2021/12/07 02:52:13;;;;;;;6.68;4.68;;;;;;;-140.79;100.00;63287.88;5042989;28;20077;-53
2021/12/07 02:54:44;;;;;;;7.97;5.72;;;;;;;-140.79;100.00;63287.88;5044144;28;20037;-54
2021/12/07 02:57:13;;;;;;;6.18;4.55;;;;;;;-140.79;100.00;63287.88;5044394;28;20039;-53
2021/12/07 02:59:48;;;;;;;7.40;4.90;;;;;;;-140.79;100.00;63287.88;5044351;28;20513;-52
2021/12/07 03:02:16;;;;;;;6.82;5.13;;;;;;;-140.79;100.00;63287.88;5044660;28;20028;-53
2021/12/07 03:04:52;;;;;;;6.75;4.68;;;;;;;-140.79;100.00;63287.88;5044389;28;20100;-53
2021/12/07 03:07:39;;;;;;;6.53;4.90;;;;;;;-140.79;100.00;63287.88;5040332;28;20465;-53
2021/12/07 03:25:52;;;;;;;6.43;4.45;;;;;;;-140.79;100.00;63287.88;5037902;28;20246;-53
2021/12/07 03:26:30;;;;;;;5.80;4.30;;;;;;;-140.79;100.00;63287.88;5044230;28;20117;-53
2021/12/07 03:28:57;;;;;;;6.20;4.60;;;;;;;-140.79;100.00;63287.88;5043785;28;20043;-53
2021/12/07 03:31:26;;;;;;;5.55;4.03;;;;;;;-140.79;100.00;63287.88;5043981;28;20049;-53
2021/12/07 03:33:53;;;;;;;5.32;4.13;;;;;;;-140.79;100.00;63287.88;5047450;28;20033;-52
2021/12/07 03:36:19;;;;;;;6.05;4.47;;;;;;;-140.79;100.00;63287.88;5047689;28;20033;-53
2021/12/07 03:38:44;;;;;;;5.75;4.13;;;;;;;-140.79;100.00;63287.88;5047670;28;20041;-52
2021/12/07 03:41:10;;;;;;;6.03;4.38;;;;;;;-140.79;100.00;63287.88;5047664;28;20029;-53
2021/12/07 03:43:35;;;;;;;5.93;4.03;;;;;;;-140.79;100.00;63287.88;5047882;28;20028;-52
2021/12/07 03:46:01;;;;;;;6.18;4.28;;;;;;;-140.79;100.00;63287.88;5047577;28;20043;-53
2021/12/07 03:48:26;;;;;;;5.72;4.20;;;;;;;-140.79;100.00;63287.88;5047771;28;20036;-52
2021/12/07 03:50:52;;;;;;;5.55;3.65;;;;;;;-140.79;100.00;63287.88;5046259;28;20045;-53
2021/12/07 03:53:17;;;;;;;6.22;4.20;;;;;;;-140.79;100.00;63287.88;5047174;28;20400;-53
2021/12/07 03:55:44;;;;;;;4.78;3.58;;;;;;;-140.79;100.00;63287.88;5046032;28;20076;-53
2021/12/07 03:58:10;;;;;;;5.50;3.85;;;;;;;-140.79;100.00;63287.88;5047687;28;20036;-54
2021/12/07 04:00:38;;;;;;;6.30;4.10;;;;;;;-140.79;100.00;63287.88;5047636;28;20091;-52
2021/12/07 04:03:07;;;;;;;5.55;3.90;;;;;;;-140.79;100.00;63287.88;5047379;28;20040;-52
2021/12/07 04:05:34;;;;;;;5.18;3.70;;;;;;;-140.79;100.00;63287.88;5047263;28;20529;-52
2021/12/07 04:07:59;;;;;;;6.13;3.85;;;;;;;-140.79;100.00;63287.88;5032756;28;20033;-53
2021/12/07 04:10:25;;;;;;;5.10;3.42;;;;;;;-140.79;100.00;63287.88;5030468;28;20530;-53
2021/12/07 04:12:51;;;;;;;5.38;3.70;;;;;;;-140.79;100.00;63287.88;5035262;28;20136;-52
2021/12/07 04:15:17;;;;;;;4.90;3.72;;;;;;;-140.79;100.00;63287.88;5046017;28;20581;-52
2021/12/07 04:17:43;;;;;;;4.70;3.20;;;;;;;-140.79;100.00;63287.88;5038091;28;20129;-52
2021/12/07 04:20:10;;;;;;;5.53;3.63;;;;;;;-140.79;100.00;63287.88;5028679;28;20134;-52
2021/12/07 04:22:35;;;;;;;4.82;3.60;;;;;;;-140.79;100.00;63287.88;5040698;28;20506;-53
2021/12/07 04:25:01;;;;;;;5.38;3.80;;;;;;;-140.79;100.00;63287.88;5046703;28;20029;-53
2021/12/07 04:27:27;;;;;;;5.35;3.75;;;;;;;-140.79;100.00;63287.88;5046846;28;20040;-53
2021/12/07 04:29:52;;;;;;;5.85;3.67;;;;;;;-140.79;100.00;63287.88;5046911;28;20040;-53
2021/12/07 04:32:18;;;;;;;4.30;2.95;;;;;;;-140.79;100.00;63287.88;5046709;28;20021;-51
2021/12/07 04:34:43;;;;;;;5.45;3.30;;;;;;;-140.79;100.00;63287.88;5046551;28;20412;-54
2021/12/07 04:37:09;;;;;;;4.47;3.20;;;;;;;-140.79;100.00;63287.88;5046577;28;20135;-52
2021/12/07 04:39:34;;;;;;;4.97;3.35;;;;;;;-140.79;100.00;63287.88;5046735;28;20033;-53
2021/12/07 04:42:00;;;;;;;4.57;3.40;;;;;;;-140.79;100.00;63287.88;5046604;28;20037;-53
2021/12/07 04:44:25;;;;;;;4.03;2.80;;;;;;;-140.79;100.00;63287.88;5045554;28;20025;-53
2021/12/07 04:47:10;;;;;;;4.25;3.08;;;;;;;-140.79;100.00;63287.88;5046811;28;20037;-53
2021/12/07 04:50:08;;;;;;;4.80;2.97;;;;;;;-140.79;100.00;63287.88;5044511;28;20017;-53
2021/12/07 04:58:02;;;;;;;4.35;3.25;;;;;;;-140.79;100.00;63287.88;5046764;28;20565;-52
2021/12/07 05:00:27;;;;;;;4.10;2.90;;;;;;;-140.79;100.00;63287.88;5046466;28;20037;-53
2021/12/07 05:03:00;;;;;;;3.97;2.90;;;;;;;-140.79;100.00;63287.88;5046537;28;20029;-53
2021/12/07 05:05:30;;;;;;;5.95;3.53;;;;;;;-140.79;100.00;63287.88;5046048;28;20539;-53
2021/12/07 05:07:59;;;;;;;;;;;;;;;-140.79;100.00;63287.88;5037803;28;20065;-53
2021/12/07 05:13:26;;;;;;;4.15;2.80;;;;;;;-140.79;100.00;63287.88;5009856;28;20597;-53
2021/12/07 05:23:57;;;;;;;4.22;2.72;;;;;;;-140.79;100.00;63287.88;5037161;28;20080;-52
2021/12/07 05:39:55;;;;;;;3.13;2.20;;;;;;;-140.79;100.00;63287.88;5046159;28;20067;-53
2021/12/07 05:42:24;;;;;;;3.70;2.58;;;;;;;-140.79;100.00;63287.88;5044625;28;20033;-52
2021/12/07 05:44:51;;;;;;;3.58;2.30;;;;;;;-140.79;100.00;63287.88;5037908;28;20071;-54
2021/12/07 05:47:16;;;;;;;3.60;2.50;;;;;;;-140.79;100.00;63287.88;5033968;28;20040;-53
2021/12/07 05:49:42;;;;;;;3.38;2.28;;;;;;;-140.79;100.00;63287.88;5039239;28;20033;-52
2021/12/07 05:52:07;;;;;;;3.42;2.25;;;;;;;-140.79;100.00;63287.88;5044322;28;20106;-53
2021/12/07 05:54:32;;;;;;;3.55;2.03;;;;;;;-140.79;100.00;63287.88;5044166;28;20036;-53
2021/12/07 05:56:58;;;;;;;3.03;1.98;;;;;;;-140.79;100.00;63287.88;5044430;28;20029;-52
2021/12/07 05:59:23;;;;;;;3.00;2.00;;;;;;;-140.79;100.00;63287.88;5044162;28;20083;-52
2021/12/07 06:01:49;;;;;;;3.25;2.38;;;;;;;-140.79;100.00;63287.88;5044251;28;20099;-52
2021/12/07 06:04:15;;;;;;;2.63;1.85;;;;;;;-140.79;100.00;63287.88;5056795;28;20538;-53
2021/12/07 06:06:41;;;;;;;3.22;2.20;;;;;;;-140.79;100.00;63287.88;5039677;28;20049;-53
2021/12/07 06:09:06;;;;;;;3.83;2.25;;;;;;;-140.79;100.00;63287.88;5038774;28;20024;-52
2021/12/07 06:11:32;;;;;;;3.03;2.08;;;;;;;-140.79;100.00;63287.88;5039211;28;20025;-52
2021/12/07 06:13:57;;;;;;;2.85;2.17;;;;;;;-140.79;100.00;63287.88;5042153;28;20032;-53
2021/12/07 06:16:24;;;;;;;2.63;1.83;;;;;;;-140.79;100.00;63287.88;5055146;28;20032;-52
2021/12/07 06:18:49;;;;;;;2.75;1.98;;;;;;;-140.79;100.00;63287.88;5043860;28;20053;-52
2021/12/07 06:21:15;;;;;;;2.45;1.70;;;;;;;-140.79;100.00;63287.88;5039921;28;20071;-53
2021/12/07 06:23:41;;;;;;;3.03;1.80;;;;;;;-140.79;100.00;63287.88;5027777;28;20049;-54
2021/12/07 06:26:07;;;;;;;3.63;1.80;;;;;;;-140.79;100.00;63287.88;5030141;28;20102;-51
2021/12/07 06:28:32;;;;;;;4.70;2.08;;;;;;;-140.79;100.00;63287.88;5035678;28;20481;-53
2021/12/07 06:30:58;;;;;;;2.42;1.60;;;;;;;-140.79;100.00;63287.88;5037482;28;20036;-52
2021/12/07 06:33:24;;;;;;;2.35;1.52;;;;;;;-140.79;100.00;63287.88;5043387;28;20048;-53
2021/12/07 06:35:50;;;;;;;2.75;1.63;;;;;;;-140.79;100.00;63287.88;5028285;28;20041;-53
2021/12/07 06:38:18;;;;;;;3.45;1.70;;;;;;;-140.79;100.00;63287.88;5023947;28;20075;-53
2021/12/07 06:40:44;;;;;;;2.90;2.00;;;;;;;-140.79;100.00;63287.88;5038060;28;20036;-54
2021/12/07 06:43:09;;;;;;;2.70;1.65;;;;;;;-140.79;100.00;63287.88;5030787;28;20025;-52
2021/12/07 06:45:35;;;;;;;2.72;1.83;;;;;;;-140.79;100.00;63287.88;5034215;28;20025;-51
2021/12/07 06:48:00;;;;;;;2.42;1.65;;;;;;;-140.79;100.00;63287.88;5040080;28;20036;-53
2021/12/07 06:50:26;;;;;;;2.50;1.60;;;;;;;-140.79;100.00;63287.88;5039671;28;20033;-53
2021/12/07 06:52:52;;;;;;;2.70;1.65;;;;;;;-140.79;100.00;63287.88;5038647;28;20400;-52
2021/12/07 06:55:17;;;;;;;2.75;1.50;;;;;;;-140.79;100.00;63287.88;5044006;28;20033;-52
2021/12/07 06:57:43;;;;;;;2.45;1.55;;;;;;;-140.79;100.00;63287.88;5043510;28;20068;-52
2021/12/07 07:00:09;;;;;;;2.63;1.60;;;;;;;-140.79;100.00;63287.88;5043786;28;20087;-52
2021/12/07 07:02:34;;;;;;;2.42;1.60;;;;;;;-140.79;100.00;63287.88;5041980;28;20036;-51
2021/12/07 07:05:00;;;;;;;2.47;1.52;;;;;;;-140.79;100.00;63287.88;5040304;28;20423;-51
2021/12/07 07:07:25;;;;;;;1.90;1.23;;;;;;;-140.79;100.00;63287.88;5035971;28;20200;-53
2021/12/07 07:09:51;;;;;;;2.70;1.50;;;;;;;-140.79;100.00;63287.88;5036423;28;20040;-52
2021/12/07 07:12:17;;;;;;;2.15;1.42;;;;;;;-140.79;100.00;63287.88;5041222;28;20029;-53
2021/12/07 07:14:42;;;;;;;1.90;1.40;;;;;;;-140.79;100.00;63287.88;5035575;28;20041;-52
2021/12/07 07:17:07;;;;;;;2.30;1.52;;;;;;;-140.79;100.00;63287.88;5035154;28;20072;-52
2021/12/07 07:19:33;;;;;;;3.10;1.50;;;;;;;-140.79;100.00;63287.88;5040883;28;20094;-51
2021/12/07 07:22:01;;;;;;;2.92;1.30;;;;;;;-140.79;100.00;63287.88;5030330;28;20029;-52
2021/12/07 07:24:28;;;;;;;2.83;1.20;;;;;;;-140.79;100.00;63287.88;5028170;28;20036;-52
2021/12/07 07:26:53;;;;;;;1.95;1.30;;;;;;;-140.79;100.00;63287.88;5029562;28;20033;-52
2021/12/07 07:29:19;;;;;;;2.08;1.40;;;;;;;-140.79;100.00;63287.88;5033681;28;20510;-52
2021/12/07 07:31:44;;;;;;;1.83;1.23;;;;;;;-140.79;100.00;63287.88;5031139;28;20044;-53
2021/12/07 07:34:10;;;;;;;2.65;1.33;;;;;;;-140.79;100.00;63287.88;5027508;28;20060;-52
2021/12/07 07:36:35;;;;;;;2.17;1.38;;;;;;;-140.79;100.00;63287.88;5009454;28;20053;-51
2021/12/07 07:39:00;;;;;;;2.97;1.50;;;;;;;-140.79;100.00;63287.88;5029383;28;20025;-54
2021/12/07 07:41:26;;;;;;;2.15;1.30;;;;;;;-140.79;100.00;63287.88;5026873;28;20056;-52
2021/12/07 07:43:51;;;;;;;1.67;1.10;;;;;;;-140.79;100.00;63287.88;5036350;28;20029;-54
2021/12/07 07:46:17;;;;;;;1.95;1.20;;;;;;;-140.79;100.00;63287.88;5027302;28;20436;-53
2021/12/07 07:48:42;;;;;;;1.60;1.10;;;;;;;-140.79;100.00;63287.88;5040872;28;20407;-54
2021/12/07 07:51:09;;;;;;;1.55;1.08;;;;;;;-140.79;100.00;63287.88;5042289;28;20439;-52
2021/12/07 07:53:35;;;;;;;1.92;1.30;;;;;;;-140.79;100.00;63287.88;5039451;28;20385;-51
2021/12/07 07:56:00;;;;;;;2.35;1.25;;;;;;;-140.79;100.00;63287.88;5040864;28;20542;-53
2021/12/07 07:58:25;;;;;;;2.17;1.30;;;;;;;-140.79;100.00;63287.88;5030521;28;20022;-52
2021/12/07 08:00:51;;;;;;;1.92;1.17;;;;;;;-140.79;100.00;63287.88;5023879;28;20558;-53
2021/12/07 08:03:16;;;;;;;1.85;1.10;;;;;;;-140.79;100.00;63287.88;5025188;28;20036;-53
2021/12/07 08:05:42;;;;;;;2.22;1.20;;;;;;;-140.79;100.00;63287.88;5035172;28;20028;-52
2021/12/07 08:08:07;;;;;;;1.80;1.10;;;;;;;-140.79;100.00;63287.88;5020330;28;20048;-53
2021/12/07 08:10:33;;;;;;;1.63;1.00;;;;;;;-140.79;100.00;63287.88;5034704;28;20024;-53
2021/12/07 08:13:00;;;;;;;2.40;1.33;;;;;;;-140.79;100.00;63287.88;5033665;28;20014;-53
2021/12/07 08:15:25;;;;;;;1.55;1.05;;;;;;;-140.79;100.00;63287.88;5025139;28;20034;-54
2021/12/07 08:17:51;;;;;;;1.77;1.00;;;;;;;-140.79;100.00;63287.88;5041787;28;20017;-54
2021/12/07 08:20:16;;;;;;;3.00;1.67;;;;;;;-140.79;100.00;63287.88;5037840;28;20032;-54
2021/12/07 08:22:42;;;;;;;2.70;1.30;;;;;;;-140.79;100.00;63287.88;5026745;28;20428;-53
2021/12/07 08:25:07;;;;;;;2.72;1.80;;;;;;;-140.79;100.00;63287.88;5042971;28;20052;-52
2021/12/07 08:27:33;;;;;;;3.10;1.48;;;;;;;-140.79;100.00;63287.88;5028575;28;20035;-53
2021/12/07 08:29:58;;;;;;;2.75;1.63;;;;;;;-140.79;100.00;63287.88;5046601;28;20435;-53
2021/12/07 08:32:23;;;;;;;4.55;1.98;;;;;;;-140.79;100.00;63287.88;5033693;28;20393;-52
2021/12/07 08:34:49;;;;;;;2.75;1.80;;;;;;;-140.79;100.00;63287.88;5025630;28;20040;-53
2021/12/07 08:37:14;;;;;;;3.78;2.13;;;;;;;-140.79;100.00;63287.88;5025014;28;20042;-52
2021/12/07 08:39:40;;;;;;;3.50;2.00;;;;;;;-140.79;100.00;63287.88;5026155;28;20022;-52
2021/12/07 08:42:06;;;;;;;3.40;1.90;;;;;;;-140.79;100.00;63287.88;5029293;28;20032;-54
2021/12/07 08:44:32;;;;;;;3.80;1.65;;;;;;;-140.79;100.00;63287.88;5028781;28;20057;-53
2021/12/07 08:46:57;;;;;;;3.85;1.52;;;;;;;-140.79;100.00;63287.88;5037272;28;20056;-52
2021/12/07 08:49:23;;;;;;;2.85;1.60;;;;;;;-140.79;100.00;63287.88;5025145;28;20476;-50
2021/12/07 08:51:49;;;;;;;2.60;1.48;;;;;;;-140.79;100.00;63287.88;5026278;28;20052;-52
2021/12/07 08:59:45;;;;;;;3.10;1.50;;;;;;;-140.79;100.00;63287.88;5033398;28;20113;-52
2021/12/07 09:02:12;;;;;;;2.42;1.30;;;;;;;-140.79;100.00;63287.88;5034965;28;20082;-52
2021/12/07 09:04:38;;;;;;;2.72;1.42;;;;;;;-140.79;100.00;63287.88;5046636;28;20037;-52
2021/12/07 09:07:05;;;;;;;2.97;1.40;;;;;;;-140.79;100.00;63287.88;5047095;28;20032;-52
2021/12/07 09:09:31;;;;;;;2.33;1.30;;;;;;;-140.79;100.00;63287.88;5062787;28;20033;-54
2021/12/07 09:11:57;;;;;;;2.50;1.45;;;;;;;-140.79;100.00;63287.88;5046462;28;20557;-52
2021/12/07 09:14:23;;;;;;;2.25;1.50;;;;;;;-140.79;100.00;63287.88;5036711;28;20030;-53
2021/12/07 09:16:48;;;;;;;2.50;1.40;;;;;;;-140.79;100.00;63287.88;5035982;28;20087;-53
2021/12/07 09:19:14;;;;;;;2.20;1.42;;;;;;;-140.79;100.00;63287.88;5042019;28;20029;-54
2021/12/07 09:21:39;;;;;;;2.08;1.30;;;;;;;-140.79;100.00;63287.88;5039626;28;20034;-53
2021/12/07 09:24:05;;;;;;;3.50;1.42;;;;;;;-140.79;100.00;63287.88;5029999;28;20499;-53
2021/12/07 09:26:31;;;;;;;1.70;1.00;;;;;;;-140.79;100.00;63287.88;5025746;28;20542;-53
2021/12/07 09:28:56;;;;;;;2.03;1.10;;;;;;;-140.79;100.00;63287.88;5025924;28;20029;-52
2021/12/07 09:31:22;;;;;;;2.40;1.30;;;;;;;-140.79;100.00;63287.88;5024794;28;20029;-54
2021/12/07 09:33:48;;;;;;;2.72;1.25;;;;;;;-140.79;100.00;63287.88;5029595;28;20115;-52
2021/12/07 09:36:13;;;;;;;2.38;1.10;;;;;;;-140.79;100.00;63287.88;5025793;28;20104;-52
2021/12/07 09:38:39;;;;;;;2.45;1.17;;;;;;;-140.79;100.00;63287.88;5025477;28;20044;-53
2021/12/07 09:41:05;;;;;;;2.63;1.30;;;;;;;-140.79;100.00;63287.88;5023838;28;20049;-55
2021/12/07 09:43:31;;;;;;;2.30;1.10;;;;;;;-140.79;100.00;63287.88;5027270;28;20504;-53
2021/12/07 09:45:56;;;;;;;2.15;1.08;;;;;;;-140.79;100.00;63287.88;5025986;28;20052;-52
2021/12/07 09:48:22;;;;;;;2.38;1.20;;;;;;;-140.79;100.00;63287.88;5025896;28;20067;-54
2021/12/07 09:50:49;;;;;;;2.50;1.42;;;;;;;-140.79;100.00;63287.88;5026676;28;20052;-53
2021/12/07 09:53:15;;;;;;;1.88;1.00;;;;;;;-140.79;100.00;63287.88;5026894;28;20033;-51
2021/12/07 09:55:40;;;;;;;4.32;1.50;;;;;;;-140.79;100.00;63287.88;5026828;28;20028;-53
2021/12/07 09:58:06;;;;;;;1.80;1.08;;;;;;;-140.79;100.00;63287.88;5028196;28;20071;-53
2021/12/07 10:00:33;;;;;;;2.35;1.20;;;;;;;-140.79;100.00;63287.88;5031616;28;20029;-51
2021/12/07 10:02:58;;;;;;;2.13;1.00;;;;;;;-140.79;100.00;63287.88;5039318;28;20021;-52
2021/12/07 10:05:25;;;;;;;1.63;1.08;;;;;;;-140.79;100.00;63287.88;5032403;28;20029;-52
2021/12/07 10:07:51;;;;;;;2.38;1.13;;;;;;;-140.79;100.00;63287.88;5044740;28;20052;-52
2021/12/07 10:10:30;;;;;;;2.72;1.20;;;;;;;-140.79;100.00;63287.88;5044508;28;20036;-54
2021/12/07 10:12:56;;;;;;;3.47;1.10;;;;;;;-140.79;100.00;63287.88;5043624;28;20021;-52
2021/12/07 10:15:21;;;;;;;1.95;1.00;;;;;;;-140.79;100.00;63287.88;5026865;28;20500;-52
2021/12/07 10:18:05;;;;;;;1.83;0.85;;;;;;;-140.79;100.00;63287.88;5036104;28;20484;-51
2021/12/07 10:20:41;;;;;;;2.10;0.93;;;;;;;-140.79;100.00;63287.88;5044267;28;20800;-52
2021/12/07 10:23:13;;;;;;;2.85;1.30;;;;;;;-140.79;100.00;63287.88;5037808;28;20029;-52
2021/12/07 10:25:40;;;;;;;1.48;0.90;;;;;;;-140.79;100.00;63287.88;5033731;28;20044;-50
2021/12/07 10:28:10;;;;;;;3.72;1.10;;;;;;;-140.79;100.00;63287.88;5044423;28;20044;-53
2021/12/07 10:30:35;;;;;;;2.05;1.10;;;;;;;-140.79;100.00;63287.88;5019080;28;20047;-52
2021/12/07 10:33:02;;;;;;;2.13;1.10;;;;;;;-140.79;100.00;63287.88;5044309;28;20041;-52
2021/12/07 10:35:36;;;;;;;2.08;1.10;;;;;;;-140.79;100.00;63287.88;5043967;28;20123;-52
2021/12/07 10:38:15;;;;;;;1.88;1.00;;;;;;;-140.79;100.00;63287.88;5026046;28;20026;-53
2021/12/07 10:40:57;;;;;;;2.30;1.00;;;;;;;-140.79;100.00;63287.88;5040511;28;20502;-53
2021/12/07 10:43:41;;;;;;;1.83;0.90;;;;;;;-140.79;100.00;63287.88;5043610;28;20033;-53
2021/12/07 10:46:51;;;;;;;2.15;1.20;;;;;;;-140.79;100.00;63287.88;5037985;28;20037;-51
2021/12/07 10:49:25;;;;;;;2.30;1.00;;;;;;;-140.79;100.00;63287.88;5027802;28;20037;-52
2021/12/07 10:51:58;;;;;;;1.88;0.98;;;;;;;-140.79;100.00;63287.88;5028700;28;20041;-55
2021/12/07 10:54:24;;;;;;;2.05;0.85;;;;;;;-140.79;100.00;63287.88;5033756;28;20025;-55
2021/12/07 10:56:52;;;;;;;1.85;1.08;;;;;;;-140.79;100.00;63287.88;5036904;28;20021;-54
2021/12/07 10:59:18;;;;;;;3.22;1.02;;;;;;;-140.79;100.00;63287.88;5030545;28;20287;-55
2021/12/07 11:01:45;;;;;;;2.05;1.08;;;;;;;-140.79;100.00;63287.88;5043188;28;20499;-54
2021/12/07 11:04:22;;;;;;;1.48;0.88;;;;;;;-140.79;100.00;63287.88;5035066;28;20435;-53
2021/12/07 11:07:20;;;;;;;1.73;0.90;;;;;;;-140.79;100.00;63287.88;5033481;28;20419;-54
2021/12/07 11:09:57;;;;;;;1.80;1.00;;;;;;;-140.79;100.00;63287.88;5025897;28;20119;-54
2021/12/07 11:12:24;;;;;;;1.88;0.98;;;;;;;-140.79;100.00;63287.88;5039218;28;20044;-54
2021/12/07 11:14:54;;;;;;;1.95;1.08;;;;;;;-140.79;100.00;63287.88;5036158;28;20059;-54
2021/12/07 11:17:25;;;;;;;2.45;1.30;;;;;;;-140.79;100.00;63287.88;5028390;28;20033;-55
2021/12/07 11:19:51;;;;;;;1.65;1.10;;;;;;;-140.79;100.00;63287.88;5032151;28;20388;-56
2021/12/07 11:22:20;;;;;;;1.45;1.00;;;;;;;-140.79;100.00;63287.88;5032776;28;20041;-56
2021/12/07 11:24:46;;;;;;;1.73;0.90;;;;;;;-140.79;100.00;63287.88;5043711;28;20083;-55
2021/12/07 11:30:27;;;;;;;1.85;0.90;;;;;;;-140.79;100.00;63287.88;5029205;28;20120;-57
2021/12/07 11:32:55;;;;;;;1.38;0.93;;;;;;;-140.79;100.00;63287.88;5033705;28;20061;-52
2021/12/07 11:35:23;;;;;;;1.90;1.20;;;;;;;-140.79;100.00;63287.88;5038260;28;20037;-52
2021/12/07 11:37:49;;;;;;;2.10;0.85;;;;;;;-140.79;100.00;63287.88;5041916;28;20594;-52
2021/12/07 11:40:18;;;;;;;1.50;0.80;;;;;;;-140.79;100.00;63287.88;5043594;28;20044;-52
2021/12/07 11:42:44;;;;;;;2.15;1.08;;;;;;;-140.79;100.00;63287.88;5043311;28;20044;-52
2021/12/07 11:45:16;;;;;;;1.50;0.93;;;;;;;-140.79;100.00;63287.88;5043559;28;20033;-53
2021/12/07 11:47:43;;;;;;;1.40;0.93;;;;;;;-140.79;100.00;63287.88;5040350;28;20108;-51
2021/12/07 11:50:11;;;;;;;2.63;1.13;;;;;;;-140.79;100.00;63287.88;5030294;28;20025;-52
2021/12/07 11:52:36;;;;;;;3.08;1.05;;;;;;;-140.79;100.00;63287.88;5043930;28;20062;-52
2021/12/07 11:55:03;;;;;;;1.52;0.90;;;;;;;-140.79;100.00;63287.88;5047234;28;20021;-52
2021/12/07 11:57:28;;;;;;;1.58;1.00;;;;;;;-140.79;100.00;63287.88;5041144;28;20128;-52
2021/12/07 11:59:54;;;;;;;1.60;1.00;;;;;;;-140.79;100.00;63287.88;5047308;28;20052;-53
2021/12/07 12:02:19;;;;;;;2.03;1.08;;;;;;;-140.79;100.00;63287.88;5047069;28;20530;-52
2021/12/07 12:04:45;;;;;;;1.83;1.10;;;;;;;-140.79;100.00;63287.88;5047065;28;20052;-51
2021/12/07 12:07:11;;;;;;;1.92;0.93;;;;;;;-140.79;100.00;63287.88;5047175;28;20108;-52
2021/12/07 12:09:48;;;;;;;1.83;0.70;;;;;;;-140.79;100.00;63287.88;5046829;28;20040;-54
2021/12/07 12:12:20;;;;;;;1.95;0.75;;;;;;;-140.79;100.00;63287.88;5047079;28;20059;-54
2021/12/07 12:15:13;;;;;;;1.50;0.80;;;;;;;-140.79;100.00;63287.88;5046729;28;20120;-54
2021/12/07 12:17:53;;;;;;;2.28;0.98;;;;;;;-140.79;100.00;63287.88;5046677;28;20044;-52
2021/12/07 12:20:56;;;;;;;1.77;0.90;;;;;;;-140.79;100.00;63287.88;5045442;28;20048;-52
2021/12/07 12:23:49;;;;;;;2.80;1.30;;;;;;;-140.79;100.00;63287.88;5045193;28;20067;-53
2021/12/07 12:26:20;;;;;;;3.10;1.10;;;;;;;-140.79;100.00;63287.88;5046876;28;20400;-53
2021/12/07 12:28:49;;;;;;;2.13;0.95;;;;;;;-140.79;100.00;63287.88;5046612;28;20040;-54
2021/12/07 12:31:15;;;;;;;1.67;1.00;;;;;;;-140.79;100.00;63287.88;5046666;28;20110;-53
2021/12/07 12:33:48;;;;;;;2.45;1.10;;;;;;;-140.79;100.00;63287.88;5046229;28;20060;-52
2021/12/07 12:36:13;;;;;;;2.35;1.10;;;;;;;-140.79;100.00;63287.88;5046695;28;20025;-53
2021/12/07 12:38:43;;;;;;;2.10;1.10;;;;;;;-140.79;100.00;63287.88;5045197;28;20044;-54